createdAt,value
2023-04-26T00:01:08.254Z,52.30
2023-04-26T00:03:34.903Z,52.97
2023-04-26T00:06:08.758Z,52.32
2023-04-26T00:08:38.180Z,52.67
2023-04-26T00:11:04.725Z,52.95
2023-04-26T00:13:31.274Z,52.68
2023-04-26T00:15:57.872Z,52.60
2023-04-26T00:18:24.438Z,52.69
2023-04-26T00:20:51.325Z,52.93
2023-04-26T00:23:18.369Z,53.08
2023-04-26T00:25:44.929Z,52.60
2023-04-26T00:28:11.419Z,52.68
2023-04-26T00:30:41.208Z,52.76
2023-04-26T00:33:07.984Z,52.85
2023-04-26T00:35:34.489Z,52.42
2023-04-26T00:38:01.194Z,52.77
2023-04-26T00:40:27.682Z,52.79
2023-04-26T00:42:58.386Z,52.77
2023-04-26T00:45:24.883Z,52.41
2023-04-26T00:47:51.510Z,52.86
2023-04-26T00:50:18.232Z,52.77
2023-04-26T00:52:45.443Z,52.84
2023-04-26T00:55:12.037Z,52.93
2023-04-26T00:57:39.613Z,53.02
2023-04-26T01:00:06.722Z,52.88
2023-04-26T01:02:33.452Z,53.11
2023-04-26T01:05:00.071Z,52.74
2023-04-26T01:07:26.681Z,52.89
2023-04-26T01:09:53.247Z,52.71
2023-04-26T01:12:19.775Z,52.62
2023-04-26T01:14:46.340Z,52.54
2023-04-26T01:17:13.119Z,53.25
2023-04-26T01:19:47.627Z,52.85
2023-04-26T01:22:14.187Z,52.95
2023-04-26T01:24:41.499Z,52.55
2023-04-26T01:27:08.035Z,53.18
2023-04-26T01:29:34.599Z,52.72
2023-04-26T01:32:01.184Z,52.86
2023-04-26T01:34:27.761Z,52.84
2023-04-26T01:36:54.364Z,52.58
2023-04-26T01:39:20.972Z,52.79
2023-04-26T01:41:47.474Z,52.59
2023-04-26T01:44:14.000Z,52.70
2023-04-26T01:46:40.568Z,52.68
2023-04-26T01:49:07.117Z,52.71
2023-04-26T01:51:34.406Z,52.75
2023-04-26T01:54:00.946Z,52.86
2023-04-26T01:56:27.496Z,52.90
2023-04-26T01:58:56.286Z,52.87
2023-04-26T02:01:22.950Z,52.82
2023-04-26T02:03:49.708Z,52.78
2023-04-26T02:06:16.362Z,52.81
2023-04-26T02:08:42.967Z,52.78
2023-04-26T02:11:10.034Z,52.92
2023-04-26T02:13:36.611Z,52.88
2023-04-26T02:16:03.726Z,52.79
2023-04-26T02:18:30.286Z,52.96
2023-04-26T02:20:56.920Z,52.82
2023-04-26T02:23:24.300Z,52.75
2023-04-26T02:25:50.877Z,52.76
2023-04-26T02:28:17.564Z,52.75
2023-04-26T02:30:44.704Z,52.70
2023-04-26T02:33:11.251Z,52.92
2023-04-26T02:35:37.859Z,52.85
2023-04-26T02:38:04.496Z,52.50
2023-04-26T02:40:31.059Z,52.58
2023-04-26T02:42:57.693Z,52.78
2023-04-26T02:45:24.230Z,52.98
2023-04-26T02:47:51.006Z,52.88
2023-04-26T02:50:17.550Z,52.73
2023-04-26T02:52:44.082Z,52.79
2023-04-26T02:55:10.714Z,52.94
2023-04-26T02:57:37.231Z,52.72
2023-04-26T03:00:05.537Z,52.68
2023-04-26T03:02:32.397Z,52.93
2023-04-26T03:04:59.086Z,52.97
2023-04-26T03:07:25.894Z,52.96
2023-04-26T03:09:52.450Z,52.71
2023-04-26T03:12:19.718Z,53.02
2023-04-26T03:14:46.232Z,52.55
2023-04-26T03:17:12.766Z,52.62
2023-04-26T03:19:39.362Z,52.71
2023-04-26T03:22:05.937Z,53.02
2023-04-26T03:24:32.738Z,52.70
2023-04-26T03:27:00.091Z,53.11
2023-04-26T03:29:26.990Z,52.65
2023-04-26T03:31:53.665Z,52.86
2023-04-26T03:34:20.731Z,52.57
2023-04-26T03:36:47.442Z,53.03
2023-04-26T03:39:14.054Z,53.11
2023-04-26T03:41:41.025Z,52.94
2023-04-26T03:44:07.677Z,53.00
2023-04-26T03:46:34.242Z,53.44
2023-04-26T03:49:00.845Z,52.62
2023-04-26T03:51:28.290Z,53.19
2023-04-26T03:53:55.591Z,52.76
2023-04-26T03:56:22.122Z,52.61
2023-04-26T03:58:48.652Z,52.89
2023-04-26T04:01:15.802Z,52.48
2023-04-26T04:03:42.483Z,52.69
2023-04-26T04:06:09.367Z,52.93
2023-04-26T04:08:35.921Z,52.23
2023-04-26T04:11:02.490Z,53.23
2023-04-26T04:13:29.090Z,52.93
2023-04-26T04:15:55.626Z,52.40
2023-04-26T04:18:22.127Z,52.46
2023-04-26T04:20:48.703Z,53.00
2023-04-26T04:23:15.670Z,52.74
2023-04-26T04:25:42.335Z,52.73
2023-04-26T04:28:08.888Z,52.36
2023-04-26T04:30:35.744Z,52.93
2023-04-26T04:33:03.379Z,53.13
2023-04-26T04:35:33.609Z,52.77
2023-04-26T04:38:00.634Z,52.72
2023-04-26T04:40:27.539Z,51.34
2023-04-26T04:42:54.864Z,50.30
2023-04-26T04:45:21.689Z,50.31
2023-04-26T04:47:48.501Z,50.47
2023-04-26T04:50:15.034Z,50.98
2023-04-26T04:52:42.526Z,51.07
2023-04-26T04:55:09.924Z,51.42
2023-04-26T04:57:36.526Z,49.10
2023-04-26T05:00:10.199Z,47.83
2023-04-26T05:02:37.411Z,47.02
2023-04-26T05:05:05.181Z,45.80
2023-04-26T05:07:32.512Z,45.57
2023-04-26T05:09:59.748Z,44.89
2023-04-26T05:12:26.435Z,44.54
2023-04-26T05:14:52.933Z,43.88
2023-04-26T05:17:19.490Z,44.02
2023-04-26T05:19:45.991Z,43.88
2023-04-26T05:22:18.237Z,43.58
2023-04-26T05:24:47.736Z,43.76
2023-04-26T05:27:14.637Z,43.26
2023-04-26T05:29:41.629Z,42.86
2023-04-26T05:32:08.484Z,43.51
2023-04-26T05:34:35.419Z,44.08
2023-04-26T05:37:02.048Z,44.21
2023-04-26T05:39:28.603Z,44.65
2023-04-26T05:41:55.114Z,45.23
2023-04-26T05:44:21.595Z,45.76
2023-04-26T05:46:48.132Z,46.58
2023-04-26T05:49:14.697Z,46.57
2023-04-26T05:51:41.350Z,44.98
2023-04-26T05:54:08.135Z,44.21
2023-04-26T05:56:34.650Z,44.04
2023-04-26T05:59:01.228Z,44.25
2023-04-26T06:01:27.841Z,44.97
2023-04-26T06:03:57.994Z,45.66
2023-04-26T06:06:28.582Z,45.65
2023-04-26T06:08:55.477Z,46.35
2023-04-26T06:11:22.350Z,46.71
2023-04-26T06:13:48.856Z,47.23
2023-04-26T06:16:15.963Z,46.57
2023-04-26T06:18:43.094Z,47.42
2023-04-26T06:21:09.587Z,47.85
2023-04-26T06:23:36.073Z,48.19
2023-04-26T06:26:02.583Z,47.79
2023-04-26T06:28:29.427Z,48.09
2023-04-26T06:30:56.018Z,48.88
2023-04-26T06:33:22.608Z,48.00
2023-04-26T06:35:49.131Z,48.28
2023-04-26T06:38:15.780Z,48.52
2023-04-26T06:40:42.857Z,48.35
2023-04-26T06:43:09.339Z,48.45
2023-04-26T06:45:36.162Z,49.25
2023-04-26T06:48:04.870Z,48.94
2023-04-26T06:50:31.514Z,48.92
2023-04-26T06:52:58.151Z,48.57
2023-04-26T06:55:24.881Z,48.94
2023-04-26T06:57:51.429Z,48.96
2023-04-26T07:00:18.290Z,48.95
2023-04-26T07:02:45.023Z,46.90
2023-04-26T07:05:11.749Z,44.06
2023-04-26T07:07:38.302Z,44.06
2023-04-26T07:10:05.317Z,44.34
2023-04-26T07:12:31.879Z,44.09
2023-04-26T07:14:58.374Z,43.88
2023-04-26T07:17:24.938Z,45.00
2023-04-26T07:19:51.577Z,45.51
2023-04-26T07:22:18.073Z,45.81
2023-04-26T07:24:44.628Z,46.58
2023-04-26T07:27:11.255Z,46.91
2023-04-26T07:29:38.542Z,46.93
2023-04-26T07:32:05.355Z,47.01
2023-04-26T07:34:31.873Z,47.17
2023-04-26T07:36:58.751Z,47.38
2023-04-26T07:39:25.392Z,47.43
2023-04-26T07:41:51.932Z,47.74
2023-04-26T07:44:18.456Z,47.48
2023-04-26T07:46:45.009Z,47.79
2023-04-26T07:49:11.549Z,47.90
2023-04-26T07:51:38.217Z,47.69
2023-04-26T07:54:04.808Z,47.89
2023-04-26T07:56:31.330Z,47.84
2023-04-26T07:58:57.910Z,48.30
2023-04-26T08:01:24.464Z,48.14
2023-04-26T08:03:51.316Z,48.20
2023-04-26T08:06:18.209Z,48.27
2023-04-26T08:08:49.208Z,48.53
2023-04-26T08:11:15.888Z,48.40
2023-04-26T08:13:44.062Z,48.58
2023-04-26T08:16:10.931Z,48.42
2023-04-26T08:18:37.714Z,48.01
2023-04-26T08:21:04.346Z,48.45
2023-04-26T08:23:35.971Z,48.74
2023-04-26T08:26:02.936Z,48.54
2023-04-26T08:28:29.506Z,48.07
2023-04-26T08:30:56.093Z,48.41
2023-04-26T08:33:22.977Z,48.78
2023-04-26T08:35:49.820Z,49.01
2023-04-26T08:38:16.418Z,48.67
2023-04-26T08:40:42.968Z,48.51
2023-04-26T08:43:09.730Z,48.88
2023-04-26T08:45:36.539Z,48.70
2023-04-26T08:48:09.332Z,48.83
2023-04-26T08:50:36.354Z,48.75
2023-04-26T08:53:03.902Z,48.74
2023-04-26T08:55:30.581Z,49.04
2023-04-26T08:57:57.104Z,48.62
2023-04-26T09:00:23.724Z,48.96
2023-04-26T09:02:52.005Z,48.87
2023-04-26T09:05:24.137Z,49.23
2023-04-26T09:07:51.322Z,48.98
2023-04-26T09:10:21.622Z,49.06
2023-04-26T09:12:54.880Z,49.02
2023-04-26T09:15:26.626Z,49.07
2023-04-26T09:17:53.423Z,49.03
2023-04-26T09:20:31.320Z,48.96
2023-04-26T09:23:05.815Z,49.26
2023-04-26T09:25:32.498Z,49.14
2023-04-26T09:27:59.543Z,49.24
2023-04-26T09:30:26.260Z,49.15
2023-04-26T09:32:52.893Z,49.38
2023-04-26T09:35:48.938Z,49.34
2023-04-26T09:38:17.239Z,49.36
2023-04-26T09:40:50.340Z,49.21
2023-04-26T09:43:21.067Z,49.16
2023-04-26T09:45:53.643Z,49.26
2023-04-26T09:48:22.934Z,49.34
2023-04-26T09:50:52.458Z,49.36
2023-04-26T09:53:27.130Z,49.45
2023-04-26T09:55:54.954Z,49.43
2023-04-26T09:58:21.561Z,49.53
2023-04-26T10:00:48.136Z,49.87
2023-04-26T10:03:14.862Z,49.40
2023-04-26T10:05:41.453Z,49.39
2023-04-26T10:08:08.347Z,50.20
2023-04-26T10:10:35.354Z,49.54
2023-04-26T10:13:01.922Z,49.55
2023-04-26T10:15:28.562Z,49.41
2023-04-26T10:17:55.275Z,49.58
2023-04-26T10:20:22.706Z,49.55
2023-04-26T10:22:54.034Z,49.45
2023-04-26T10:25:21.134Z,49.52
2023-04-26T10:27:48.471Z,49.42
2023-04-26T10:30:16.460Z,49.70
2023-04-26T10:32:52.348Z,49.22
2023-04-26T10:35:19.224Z,49.46
2023-04-26T10:38:03.908Z,49.52
2023-04-26T10:40:34.829Z,49.61
2023-04-26T10:43:16.777Z,49.74
2023-04-26T10:45:44.011Z,49.69
2023-04-26T10:48:30.080Z,50.09
2023-04-26T10:51:04.344Z,49.74
2023-04-26T10:53:31.275Z,49.71
2023-04-26T10:55:57.861Z,49.54
2023-04-26T10:58:28.227Z,49.42
2023-04-26T11:01:17.438Z,49.82
2023-04-26T11:04:04.134Z,49.77
2023-04-26T11:06:50.884Z,49.65
2023-04-26T11:09:39.960Z,49.64
2023-04-26T11:12:07.096Z,49.84
2023-04-26T11:14:34.654Z,49.78
2023-04-26T11:17:05.554Z,49.71
2023-04-26T11:19:32.881Z,49.93
2023-04-26T11:22:00.872Z,49.85
2023-04-26T11:24:28.569Z,49.96
2023-04-26T11:26:55.118Z,49.92
2023-04-26T11:29:21.829Z,49.87
2023-04-26T11:31:55.027Z,50.18
2023-04-26T11:34:38.276Z,49.90
2023-04-26T11:37:06.084Z,50.11
2023-04-26T11:39:33.390Z,49.92
2023-04-26T11:42:07.358Z,50.18
2023-04-26T11:44:34.165Z,49.99
2023-04-26T11:47:06.715Z,50.04
2023-04-26T11:49:37.005Z,49.36
2023-04-26T11:52:04.916Z,47.03
2023-04-26T11:54:32.641Z,45.35
2023-04-26T11:56:59.313Z,45.35
2023-04-26T11:59:26.930Z,45.83
2023-04-26T12:01:53.674Z,46.38
2023-04-26T12:04:20.545Z,46.99
2023-04-26T12:06:47.271Z,47.32
2023-04-26T12:09:13.837Z,47.44
2023-04-26T12:11:40.357Z,47.79
2023-04-26T12:14:09.777Z,48.28
2023-04-26T12:16:36.830Z,47.83
2023-04-26T12:19:09.161Z,48.02
2023-04-26T12:21:44.870Z,46.69
2023-04-26T12:24:24.451Z,45.75
2023-04-26T12:26:50.986Z,45.72
2023-04-26T12:29:17.537Z,46.09
2023-04-26T12:31:44.077Z,46.68
2023-04-26T12:34:10.703Z,47.04
2023-04-26T12:36:37.255Z,47.48
2023-04-26T12:39:05.409Z,47.60
2023-04-26T12:41:32.091Z,47.97
2023-04-26T12:43:58.628Z,47.92
2023-04-26T12:46:26.110Z,47.77
2023-04-26T12:48:52.998Z,47.63
2023-04-26T12:51:19.519Z,48.10
2023-04-26T12:53:46.259Z,48.06
2023-04-26T12:56:12.870Z,48.18
2023-04-26T12:58:39.376Z,48.14
2023-04-26T13:01:05.938Z,48.49
2023-04-26T13:03:32.685Z,48.36
2023-04-26T13:05:59.474Z,48.46
2023-04-26T13:08:26.260Z,48.65
2023-04-26T13:10:52.765Z,48.52
2023-04-26T13:13:21.970Z,48.41
2023-04-26T13:15:50.506Z,48.50
2023-04-26T13:18:18.394Z,48.37
2023-04-26T13:20:45.619Z,48.74
2023-04-26T13:23:12.181Z,48.90
2023-04-26T13:25:38.700Z,48.60
2023-04-26T13:28:05.412Z,48.71
2023-04-26T13:30:31.957Z,48.96
2023-04-26T13:33:00.343Z,48.62
2023-04-26T13:35:27.383Z,48.68
2023-04-26T13:37:53.962Z,48.73
2023-04-26T13:40:22.161Z,48.62
2023-04-26T13:42:48.662Z,48.83
2023-04-26T13:45:16.166Z,48.59
2023-04-26T13:47:43.620Z,48.92
2023-04-26T13:50:10.486Z,48.96
2023-04-26T13:52:37.098Z,49.35
2023-04-26T13:55:04.448Z,49.12
2023-04-26T13:57:31.702Z,49.35
2023-04-26T13:59:58.291Z,49.18
2023-04-26T14:02:25.076Z,49.53
2023-04-26T14:04:51.921Z,49.21
2023-04-26T14:07:18.653Z,49.37
2023-04-26T14:09:45.315Z,49.27
2023-04-26T14:12:12.038Z,47.38
2023-04-26T14:14:38.702Z,47.39
2023-04-26T14:17:05.493Z,47.80
2023-04-26T14:19:32.029Z,48.78
2023-04-26T14:21:58.789Z,48.88
2023-04-26T14:24:25.519Z,46.74
2023-04-26T14:26:52.022Z,47.07
2023-04-26T14:29:18.559Z,47.39
2023-04-26T14:31:45.438Z,48.14
2023-04-26T14:34:13.282Z,48.02
2023-04-26T14:36:39.839Z,48.36
2023-04-26T14:39:06.365Z,47.92
2023-04-26T14:41:32.874Z,48.49
2023-04-26T14:43:59.361Z,48.10
2023-04-26T14:46:26.097Z,48.44
2023-04-26T14:48:52.669Z,49.32
2023-04-26T14:51:19.228Z,48.54
2023-04-26T14:53:45.789Z,48.46
2023-04-26T14:56:12.339Z,48.77
2023-04-26T14:58:38.826Z,48.38
2023-04-26T15:01:05.358Z,49.30
2023-04-26T15:03:32.914Z,48.89
2023-04-26T15:06:00.048Z,48.99
2023-04-26T15:08:26.712Z,49.17
2023-04-26T15:10:53.862Z,48.93
2023-04-26T15:13:20.448Z,48.63
2023-04-26T15:15:47.019Z,49.08
2023-04-26T15:18:13.759Z,49.30
2023-04-26T15:20:41.008Z,49.26
2023-04-26T15:23:08.333Z,49.86
2023-04-26T15:25:36.602Z,49.42
2023-04-26T15:28:03.506Z,49.48
2023-04-26T15:30:30.750Z,49.49
2023-04-26T15:32:57.547Z,49.61
2023-04-26T15:35:25.087Z,49.73
2023-04-26T15:37:53.794Z,49.67
2023-04-26T15:40:21.316Z,49.70
2023-04-26T15:42:49.148Z,49.87
2023-04-26T15:45:15.738Z,49.82
2023-04-26T15:47:42.483Z,49.77
2023-04-26T15:50:09.722Z,49.90
2023-04-26T15:52:38.952Z,49.69
2023-04-26T15:55:07.275Z,49.72
2023-04-26T15:57:34.584Z,50.13
2023-04-26T16:00:01.659Z,50.05
2023-04-26T16:02:28.544Z,49.56
2023-04-26T16:04:56.299Z,49.88
2023-04-26T16:07:22.988Z,50.09
2023-04-26T16:09:49.527Z,50.02
2023-04-26T16:12:16.168Z,50.24
2023-04-26T16:14:42.765Z,49.89
2023-04-26T16:17:09.324Z,49.69
2023-04-26T16:19:35.956Z,49.87
2023-04-26T16:22:02.472Z,50.04
2023-04-26T16:24:28.963Z,49.98
2023-04-26T16:26:55.539Z,50.01
2023-04-26T16:29:22.215Z,49.72
2023-04-26T16:31:48.846Z,50.06
2023-04-26T16:34:15.679Z,49.70
2023-04-26T16:36:42.188Z,49.65
2023-04-26T16:39:08.782Z,49.61
2023-04-26T16:41:35.274Z,50.13
2023-04-26T16:44:01.854Z,50.04
2023-04-26T16:46:28.415Z,49.94
2023-04-26T16:48:55.016Z,49.87
2023-04-26T16:51:21.574Z,49.87
2023-04-26T16:53:48.131Z,49.92
2023-04-26T16:56:14.731Z,49.97
2023-04-26T16:58:41.302Z,49.78
2023-04-26T17:01:08.045Z,49.86
2023-04-26T17:03:34.811Z,50.14
2023-04-26T17:06:01.584Z,50.07
2023-04-26T17:08:28.143Z,49.83
2023-04-26T17:10:54.632Z,49.84
2023-04-26T17:13:21.608Z,50.32
2023-04-26T17:15:48.406Z,50.11
2023-04-26T17:18:15.113Z,50.09
2023-04-26T17:20:42.254Z,49.93
2023-04-26T17:23:09.020Z,49.94
2023-04-26T17:25:35.714Z,49.64
2023-04-26T17:28:02.254Z,50.00
2023-04-26T17:30:28.907Z,50.19
2023-04-26T17:32:55.528Z,50.09
2023-04-26T17:35:22.135Z,50.10
2023-04-26T17:37:50.432Z,50.15
2023-04-26T17:40:18.113Z,50.21
2023-04-26T17:42:45.375Z,50.24
2023-04-26T17:45:14.161Z,50.30
2023-04-26T17:47:41.537Z,50.18
2023-04-26T17:50:08.640Z,50.13
2023-04-26T17:52:35.494Z,50.23
2023-04-26T17:55:02.094Z,49.89
2023-04-26T17:57:28.634Z,50.29
2023-04-26T17:59:55.151Z,50.15
2023-04-26T18:02:21.791Z,50.61
2023-04-26T18:04:48.700Z,50.49
2023-04-26T18:07:16.101Z,50.19
2023-04-26T18:09:42.684Z,50.17
2023-04-26T18:12:09.174Z,50.58
2023-04-26T18:14:35.779Z,50.23
2023-04-26T18:17:04.215Z,50.17
2023-04-26T18:19:30.909Z,50.25
2023-04-26T18:21:57.449Z,50.28
2023-04-26T18:24:24.049Z,50.32
2023-04-26T18:26:50.670Z,49.87
2023-04-26T18:29:17.244Z,50.20
2023-04-26T18:31:43.936Z,49.96
2023-04-26T18:34:11.470Z,50.34
2023-04-26T18:36:38.046Z,50.31
2023-04-26T18:39:04.788Z,50.19
2023-04-26T18:41:31.356Z,50.37
2023-04-26T18:43:57.946Z,49.35
2023-04-26T18:46:24.485Z,49.93
2023-04-26T18:48:51.207Z,50.10
2023-04-26T18:51:17.731Z,50.57
2023-04-26T18:53:44.559Z,50.22
2023-04-26T18:56:11.265Z,49.95
2023-04-26T18:58:38.838Z,50.72
2023-04-26T19:01:05.419Z,50.33
2023-04-26T19:03:32.291Z,50.44
2023-04-26T19:05:58.979Z,50.70
2023-04-26T19:08:26.370Z,50.28
2023-04-26T19:10:53.019Z,50.74
2023-04-26T19:13:19.816Z,50.17
2023-04-26T19:15:46.492Z,50.36
2023-04-26T19:18:13.127Z,50.20
2023-04-26T19:20:40.511Z,50.22
2023-04-26T19:23:07.441Z,50.53
2023-04-26T19:25:35.169Z,50.55
2023-04-26T19:28:01.669Z,50.26
2023-04-26T19:30:28.189Z,49.97
2023-04-26T19:33:03.742Z,50.37
2023-04-26T19:35:30.303Z,49.86
2023-04-26T19:37:56.834Z,50.11
2023-04-26T19:40:23.384Z,50.55
2023-04-26T19:42:49.926Z,50.75
2023-04-26T19:45:20.329Z,50.86
2023-04-26T19:47:46.919Z,50.70
2023-04-26T19:50:13.548Z,50.50
2023-04-26T19:52:40.073Z,50.74
2023-04-26T19:55:06.902Z,50.60
2023-04-26T19:57:33.749Z,50.33
2023-04-26T20:00:00.252Z,50.36
2023-04-26T20:02:27.281Z,50.81
2023-04-26T20:04:53.992Z,50.33
2023-04-26T20:07:21.672Z,50.59
2023-04-26T20:09:48.226Z,50.76
2023-04-26T20:12:14.755Z,50.68
2023-04-26T20:14:41.560Z,50.28
2023-04-26T20:17:08.107Z,50.14
2023-04-26T20:19:34.694Z,50.36
2023-04-26T20:22:01.235Z,50.61
2023-04-26T20:24:28.185Z,50.84
2023-04-26T20:26:56.311Z,50.57
2023-04-26T20:29:22.838Z,50.41
2023-04-26T20:31:49.520Z,50.64
2023-04-26T20:34:16.194Z,50.82
2023-04-26T20:36:42.752Z,50.65
2023-04-26T20:39:11.798Z,50.58
2023-04-26T20:41:38.371Z,50.61
2023-04-26T20:44:05.279Z,50.59
2023-04-26T20:46:32.358Z,50.40
2023-04-26T20:48:58.906Z,50.31
2023-04-26T20:51:25.519Z,50.69
2023-04-26T20:53:52.069Z,50.54
2023-04-26T20:56:18.586Z,50.82
2023-04-26T20:58:45.339Z,51.19
2023-04-26T21:01:12.214Z,50.92
2023-04-26T21:03:39.338Z,50.63
2023-04-26T21:06:06.071Z,50.80
2023-04-26T21:08:33.536Z,51.13
2023-04-26T21:11:01.845Z,50.95
2023-04-26T21:13:29.589Z,50.85
2023-04-26T21:15:56.289Z,50.48
2023-04-26T21:18:22.836Z,50.83
2023-04-26T21:20:49.377Z,51.15
2023-04-26T21:23:15.927Z,50.81
2023-04-26T21:25:48.732Z,50.95
2023-04-26T21:28:15.420Z,50.90
2023-04-26T21:30:41.921Z,51.47
2023-04-26T21:33:08.542Z,50.64
2023-04-26T21:35:35.055Z,50.72
2023-04-26T21:38:01.638Z,50.78
2023-04-26T21:40:28.131Z,51.14
2023-04-26T21:43:04.357Z,50.79
2023-04-26T21:45:31.959Z,50.80
2023-04-26T21:47:58.614Z,50.58
2023-04-26T21:50:25.312Z,51.07
2023-04-26T21:52:51.879Z,51.04
2023-04-26T21:55:18.397Z,50.81
2023-04-26T21:57:45.014Z,50.99
2023-04-26T22:00:12.673Z,50.96
2023-04-26T22:02:39.345Z,51.03
2023-04-26T22:05:06.707Z,50.86
2023-04-26T22:07:33.363Z,51.01
2023-04-26T22:09:59.894Z,50.44
2023-04-26T22:12:27.489Z,50.83
2023-04-26T22:14:54.315Z,50.97
2023-04-26T22:17:21.192Z,51.04
2023-04-26T22:19:47.845Z,51.03
2023-04-26T22:22:14.339Z,50.84
2023-04-26T22:24:41.298Z,51.16
2023-04-26T22:27:07.807Z,50.72
2023-04-26T22:29:34.366Z,50.84
2023-04-26T22:32:01.027Z,51.18
2023-04-26T22:34:27.606Z,51.45
2023-04-26T22:36:54.155Z,51.00
2023-04-26T22:39:20.685Z,51.01
2023-04-26T22:41:47.236Z,50.88
2023-04-26T22:44:14.960Z,50.66
2023-04-26T22:46:41.518Z,51.31
2023-04-26T22:49:08.038Z,51.51
2023-04-26T22:51:34.907Z,51.68
2023-04-26T22:54:01.386Z,50.91
2023-04-26T22:56:27.974Z,51.00
2023-04-26T22:58:54.528Z,50.75
2023-04-26T23:01:21.278Z,51.05
2023-04-26T23:03:47.898Z,51.37
2023-04-26T23:06:14.426Z,51.38
2023-04-26T23:08:41.005Z,50.97
2023-04-26T23:11:08.764Z,51.19
2023-04-26T23:13:36.281Z,51.18
2023-04-26T23:16:04.444Z,51.27
2023-04-26T23:18:31.485Z,51.12
2023-04-26T23:20:58.081Z,51.19
2023-04-26T23:23:24.617Z,51.08
2023-04-26T23:25:51.130Z,51.10
2023-04-26T23:28:17.731Z,51.04
2023-04-26T23:30:44.271Z,51.36
2023-04-26T23:33:11.106Z,51.34
2023-04-26T23:35:41.896Z,51.17
2023-04-26T23:38:08.434Z,51.08
2023-04-26T23:40:37.108Z,51.33
2023-04-26T23:43:05.407Z,51.29
2023-04-26T23:45:32.492Z,51.10
2023-04-26T23:47:59.008Z,50.90
2023-04-26T23:50:25.608Z,51.28
2023-04-26T23:52:52.158Z,51.50
2023-04-26T23:55:18.795Z,51.26
2023-04-26T23:57:45.469Z,51.17
